Terminal Aerodrome Forecast
Issued by NWS

Home | Current Version | Previous Version | Text Only | Print | Product List | Glossary On
Versions: 1 2 3 4 5 6 7 8 9 10 11 12 13 14 15 16 17
501
FTUS43 KDVN 301503 AAA
TAFBRL
TAF AMD
KBRL 301503Z 3015/3112 34005KT P6SM VCSH SCT017 BKN035
      TEMPO 3015/3017 BKN017
     FM302000 01004KT P6SM VCSH BKN040
     FM310100 05003KT P6SM BKN050=

USA.gov is the U.S. government's official web portal to all federal, state and local government web resources and services.